sensor_id;sensor_type;location;lat;lon;timestamp;temperature;humidity
66871;DHT22;53780;44.998;9.926;2023-08-06T06:51:50;28.17;48.45
66871;DHT22;53780;44.998;9.926;2023-08-06T06:54:55;28.42;48.50
66871;DHT22;53780;44.998;9.926;2023-08-06T06:57:58;28.66;47.21
66871;DHT22;53780;44.998;9.926;2023-08-06T07:01:02;28.96;46.42
66871;DHT22;53780;44.998;9.926;2023-08-06T07:04:06;29.10;46.90
66871;DHT22;53780;44.998;9.926;2023-08-06T07:07:10;29.24;46.37
66871;DHT22;53780;44.998;9.926;2023-08-06T07:10:14;29.41;45.72
66871;DHT22;53780;44.998;9.926;2023-08-06T07:13:18;29.58;44.98
66871;DHT22;53780;44.998;9.926;2023-08-06T07:16:21;29.75;43.85
66871;DHT22;53780;44.998;9.926;2023-08-06T07:19:25;29.86;43.52
66871;DHT22;53780;44.998;9.926;2023-08-06T07:22:29;29.90;43.26
66871;DHT22;53780;44.998;9.926;2023-08-06T07:25:33;29.98;43.32
66871;DHT22;53780;44.998;9.926;2023-08-06T07:28:37;30.12;43.06
66871;DHT22;53780;44.998;9.926;2023-08-06T07:31:40;30.33;42.80
66871;DHT22;53780;44.998;9.926;2023-08-06T07:34:44;30.51;43.63
66871;DHT22;53780;44.998;9.926;2023-08-06T07:37:48;30.61;43.21
66871;DHT22;53780;44.998;9.926;2023-08-06T07:40:52;30.78;43.89
66871;DHT22;53780;44.998;9.926;2023-08-06T07:43:56;30.99;43.53
66871;DHT22;53780;44.998;9.926;2023-08-06T07:47:00;31.20;43.20
66871;DHT22;53780;44.998;9.926;2023-08-06T07:50:04;31.37;42.75
66871;DHT22;53780;44.998;9.926;2023-08-06T07:53:08;31.54;43.17
66871;DHT22;53780;44.998;9.926;2023-08-06T07:56:12;31.68;42.61
66871;DHT22;53780;44.998;9.926;2023-08-06T07:59:16;31.81;41.45
66871;DHT22;53780;44.998;9.926;2023-08-06T08:02:21;31.95;41.05
66871;DHT22;53780;44.998;9.926;2023-08-06T08:05:25;32.08;41.15
66871;DHT22;53780;44.998;9.926;2023-08-06T08:08:29;32.23;40.97
66871;DHT22;53780;44.998;9.926;2023-08-06T08:11:33;32.48;41.30
66871;DHT22;53780;44.998;9.926;2023-08-06T08:14:37;32.64;39.41
66871;DHT22;53780;44.998;9.926;2023-08-06T08:17:41;32.77;38.18
66871;DHT22;53780;44.998;9.926;2023-08-06T08:20:45;33.00;35.84
66871;DHT22;53780;44.998;9.926;2023-08-06T08:23:49;33.24;35.00
66871;DHT22;53780;44.998;9.926;2023-08-06T08:26:53;33.32;33.74
66871;DHT22;53780;44.998;9.926;2023-08-06T08:29:57;33.39;33.23
66871;DHT22;53780;44.998;9.926;2023-08-06T08:33:01;33.43;31.30
66871;DHT22;53780;44.998;9.926;2023-08-06T08:36:04;33.49;32.04
66871;DHT22;53780;44.998;9.926;2023-08-06T08:39:08;33.59;32.82
66871;DHT22;53780;44.998;9.926;2023-08-06T08:42:12;33.77;32.01
66871;DHT22;53780;44.998;9.926;2023-08-06T08:45:19;33.87;30.89
66871;DHT22;53780;44.998;9.926;2023-08-06T08:48:24;34.04;30.23
66871;DHT22;53780;44.998;9.926;2023-08-06T08:51:31;34.28;30.13
66871;DHT22;53780;44.998;9.926;2023-08-06T08:54:38;34.37;30.05
66871;DHT22;53780;44.998;9.926;2023-08-06T08:57:42;34.41;30.43
66871;DHT22;53780;44.998;9.926;2023-08-06T09:00:47;34.44;29.14
66871;DHT22;53780;44.998;9.926;2023-08-06T09:03:54;34.59;28.94
66871;DHT22;53780;44.998;9.926;2023-08-06T09:07:00;34.68;29.43
66871;DHT22;53780;44.998;9.926;2023-08-06T09:10:04;34.72;28.41
66871;DHT22;53780;44.998;9.926;2023-08-06T09:13:10;34.85;28.84
66871;DHT22;53780;44.998;9.926;2023-08-06T09:16:16;35.09;26.54
66871;DHT22;53780;44.998;9.926;2023-08-06T09:19:20;35.13;28.17
66871;DHT22;53780;44.998;9.926;2023-08-06T09:22:24;35.24;26.80
66871;DHT22;53780;44.998;9.926;2023-08-06T09:25:29;35.34;26.43
66871;DHT22;53780;44.998;9.926;2023-08-06T09:28:38;35.31;28.05
66871;DHT22;53780;44.998;9.926;2023-08-06T09:31:51;35.45;26.21
66871;DHT22;53780;44.998;9.926;2023-08-06T09:34:56;35.53;26.02
66871;DHT22;53780;44.998;9.926;2023-08-06T09:38:08;35.54;27.51
66871;DHT22;53780;44.998;9.926;2023-08-06T09:41:26;35.54;25.62
66871;DHT22;53780;44.998;9.926;2023-08-06T09:44:32;35.58;26.66
66871;DHT22;53780;44.998;9.926;2023-08-06T09:47:37;35.57;26.27
66871;DHT22;53780;44.998;9.926;2023-08-06T09:50:41;35.75;26.86
66871;DHT22;53780;44.998;9.926;2023-08-06T09:53:47;35.84;25.44
66871;DHT22;53780;44.998;9.926;2023-08-06T09:56:52;35.84;24.47
66871;DHT22;53780;44.998;9.926;2023-08-06T09:59:55;35.85;25.63
66871;DHT22;53780;44.998;9.926;2023-08-06T10:03:00;35.82;25.55
66871;DHT22;53780;44.998;9.926;2023-08-06T10:06:04;35.65;25.76
66871;DHT22;53780;44.998;9.926;2023-08-06T10:09:12;35.50;24.04
66871;DHT22;53780;44.998;9.926;2023-08-06T10:12:17;35.36;26.36
66871;DHT22;53780;44.998;9.926;2023-08-06T10:15:29;35.29;26.84
66871;DHT22;53780;44.998;9.926;2023-08-06T10:18:37;35.18;26.82
66871;DHT22;53780;44.998;9.926;2023-08-06T10:22:09;35.02;26.72
66871;DHT22;53780;44.998;9.926;2023-08-06T10:25:16;35.09;26.35
66871;DHT22;53780;44.998;9.926;2023-08-06T10:28:21;35.14;27.33
66871;DHT22;53780;44.998;9.926;2023-08-06T10:31:54;35.18;26.89
66871;DHT22;53780;44.998;9.926;2023-08-06T10:35:00;35.17;26.93
66871;DHT22;53780;44.998;9.926;2023-08-06T10:38:12;35.10;26.86
66871;DHT22;53780;44.998;9.926;2023-08-06T10:41:23;35.06;27.69
66871;DHT22;53780;44.998;9.926;2023-08-06T10:44:30;35.06;27.01
66871;DHT22;53780;44.998;9.926;2023-08-06T10:47:38;35.03;27.08
66871;DHT22;53780;44.998;9.926;2023-08-06T10:50:43;35.03;26.66
66871;DHT22;53780;44.998;9.926;2023-08-06T10:53:49;35.00;26.30
66871;DHT22;53780;44.998;9.926;2023-08-06T10:56:53;35.02;27.17
66871;DHT22;53780;44.998;9.926;2023-08-06T10:59:56;35.03;26.68
66871;DHT22;53780;44.998;9.926;2023-08-06T11:03:00;34.90;26.50
66871;DHT22;53780;44.998;9.926;2023-08-06T11:06:08;34.85;26.44
66871;DHT22;53780;44.998;9.926;2023-08-06T11:09:12;34.76;26.87
66871;DHT22;53780;44.998;9.926;2023-08-06T11:12:19;34.73;26.90
66871;DHT22;53780;44.998;9.926;2023-08-06T11:15:23;34.75;28.23
66871;DHT22;53780;44.998;9.926;2023-08-06T11:18:28;34.72;26.20
66871;DHT22;53780;44.998;9.926;2023-08-06T11:21:32;34.80;26.42
66871;DHT22;53780;44.998;9.926;2023-08-06T11:24:37;34.88;26.62
66871;DHT22;53780;44.998;9.926;2023-08-06T11:27:41;34.98;26.46
66871;DHT22;53780;44.998;9.926;2023-08-06T11:30:45;34.86;25.52
66871;DHT22;53780;44.998;9.926;2023-08-06T11:33:53;34.65;24.77
66871;DHT22;53780;44.998;9.926;2023-08-06T11:36:57;34.49;24.80
66871;DHT22;53780;44.998;9.926;2023-08-06T11:40:01;34.23;23.44
66871;DHT22;53780;44.998;9.926;2023-08-06T11:43:06;33.98;25.33
66871;DHT22;53780;44.998;9.926;2023-08-06T11:46:10;33.72;25.14
66871;DHT22;53780;44.998;9.926;2023-08-06T11:49:14;33.38;25.82
66871;DHT22;53780;44.998;9.926;2023-08-06T11:52:20;33.17;27.31
66871;DHT22;53780;44.998;9.926;2023-08-06T11:55:27;33.04;27.76
66871;DHT22;53780;44.998;9.926;2023-08-06T11:58:31;32.84;27.78
66871;DHT22;53780;44.998;9.926;2023-08-06T12:01:35;32.81;27.04
66871;DHT22;53780;44.998;9.926;2023-08-06T12:05:03;32.67;27.40
66871;DHT22;53780;44.998;9.926;2023-08-06T12:08:08;32.50;27.09
66871;DHT22;53780;44.998;9.926;2023-08-06T12:11:12;32.40;26.02
66871;DHT22;53780;44.998;9.926;2023-08-06T12:14:17;32.35;26.25
66871;DHT22;53780;44.998;9.926;2023-08-06T12:17:21;32.25;26.20
66871;DHT22;53780;44.998;9.926;2023-08-06T12:20:24;32.16;25.79
66871;DHT22;53780;44.998;9.926;2023-08-06T12:23:28;32.06;27.15
66871;DHT22;53780;44.998;9.926;2023-08-06T12:26:32;31.99;27.34
66871;DHT22;53780;44.998;9.926;2023-08-06T12:29:37;31.98;28.17
66871;DHT22;53780;44.998;9.926;2023-08-06T12:32:41;31.99;28.31
66871;DHT22;53780;44.998;9.926;2023-08-06T12:35:45;31.95;26.94
66871;DHT22;53780;44.998;9.926;2023-08-06T12:38:49;31.89;27.69
66871;DHT22;53780;44.998;9.926;2023-08-06T12:41:53;31.87;27.08
66871;DHT22;53780;44.998;9.926;2023-08-06T12:44:57;31.84;26.73
66871;DHT22;53780;44.998;9.926;2023-08-06T12:48:01;31.74;27.01
66871;DHT22;53780;44.998;9.926;2023-08-06T12:51:05;31.63;25.45
66871;DHT22;53780;44.998;9.926;2023-08-06T12:54:09;31.54;26.78
66871;DHT22;53780;44.998;9.926;2023-08-06T12:57:13;31.51;28.21
66871;DHT22;53780;44.998;9.926;2023-08-06T13:00:17;31.47;27.19
66871;DHT22;53780;44.998;9.926;2023-08-06T13:03:23;31.44;25.39
66871;DHT22;53780;44.998;9.926;2023-08-06T13:06:27;31.40;25.62
66871;DHT22;53780;44.998;9.926;2023-08-06T13:09:31;31.36;25.30
66871;DHT22;53780;44.998;9.926;2023-08-06T13:12:35;31.34;24.17
66871;DHT22;53780;44.998;9.926;2023-08-06T13:15:39;31.31;24.03
66871;DHT22;53780;44.998;9.926;2023-08-06T13:18:43;31.27;23.23
66871;DHT22;53780;44.998;9.926;2023-08-06T13:24:50;31.19;22.26
66871;DHT22;53780;44.998;9.926;2023-08-06T13:27:54;31.19;22.47
66871;DHT22;53780;44.998;9.926;2023-08-06T13:30:58;31.15;23.63
66871;DHT22;53780;44.998;9.926;2023-08-06T13:34:03;31.15;24.20
66871;DHT22;53780;44.998;9.926;2023-08-06T13:37:07;31.11;25.13
66871;DHT22;53780;44.998;9.926;2023-08-06T13:40:11;31.11;24.68
66871;DHT22;53780;44.998;9.926;2023-08-06T13:43:15;31.05;24.58
66871;DHT22;53780;44.998;9.926;2023-08-06T13:46:20;31.00;24.71
66871;DHT22;53780;44.998;9.926;2023-08-06T13:49:24;30.98;24.31
66871;DHT22;53780;44.998;9.926;2023-08-06T13:52:28;30.95;24.66
66871;DHT22;53780;44.998;9.926;2023-08-06T13:55:31;30.93;24.50
66871;DHT22;53780;44.998;9.926;2023-08-06T13:58:35;30.96;24.29
66871;DHT22;53780;44.998;9.926;2023-08-06T14:01:39;30.93;24.33
66871;DHT22;53780;44.998;9.926;2023-08-06T14:04:45;30.88;23.57
66871;DHT22;53780;44.998;9.926;2023-08-06T14:07:48;30.86;24.90
66871;DHT22;53780;44.998;9.926;2023-08-06T14:10:52;30.88;24.56
66871;DHT22;53780;44.998;9.926;2023-08-06T14:13:56;30.89;23.84
66871;DHT22;53780;44.998;9.926;2023-08-06T14:17:00;30.86;24.26
66871;DHT22;53780;44.998;9.926;2023-08-06T14:20:06;30.85;23.02
66871;DHT22;53780;44.998;9.926;2023-08-06T14:23:11;30.79;24.12
66871;DHT22;53780;44.998;9.926;2023-08-06T14:26:15;30.75;24.39
66871;DHT22;53780;44.998;9.926;2023-08-06T14:29:19;30.72;23.48
66871;DHT22;53780;44.998;9.926;2023-08-06T14:32:23;30.69;23.73
66871;DHT22;53780;44.998;9.926;2023-08-06T14:35:27;30.72;23.47
66871;DHT22;53780;44.998;9.926;2023-08-06T14:38:30;30.69;23.54
66871;DHT22;53780;44.998;9.926;2023-08-06T14:41:34;30.64;23.74
66871;DHT22;53780;44.998;9.926;2023-08-06T14:44:38;30.61;23.26
66871;DHT22;53780;44.998;9.926;2023-08-06T14:47:42;30.60;22.79
66871;DHT22;53780;44.998;9.926;2023-08-06T14:50:46;30.57;23.95
66871;DHT22;53780;44.998;9.926;2023-08-06T14:53:49;30.51;23.71
66871;DHT22;53780;44.998;9.926;2023-08-06T14:56:53;30.45;23.28
66871;DHT22;53780;44.998;9.926;2023-08-06T14:59:57;30.48;23.91
66871;DHT22;53780;44.998;9.926;2023-08-06T15:03:01;30.49;23.70
66871;DHT22;53780;44.998;9.926;2023-08-06T15:06:04;30.49;23.69
66871;DHT22;53780;44.998;9.926;2023-08-06T15:09:08;30.47;24.12
66871;DHT22;53780;44.998;9.926;2023-08-06T15:12:12;30.44;24.56
66871;DHT22;53780;44.998;9.926;2023-08-06T15:15:16;30.44;24.74
66871;DHT22;53780;44.998;9.926;2023-08-06T15:18:20;30.43;24.47
66871;DHT22;53780;44.998;9.926;2023-08-06T15:21:24;30.41;24.37
66871;DHT22;53780;44.998;9.926;2023-08-06T15:24:28;30.38;24.74
66871;DHT22;53780;44.998;9.926;2023-08-06T15:27:31;30.33;24.78
66871;DHT22;53780;44.998;9.926;2023-08-06T15:30:36;30.33;25.12
66871;DHT22;53780;44.998;9.926;2023-08-06T15:33:39;30.28;24.66
66871;DHT22;53780;44.998;9.926;2023-08-06T15:36:43;30.24;24.76
66871;DHT22;53780;44.998;9.926;2023-08-06T15:39:47;30.21;24.87
66871;DHT22;53780;44.998;9.926;2023-08-06T15:42:51;30.16;24.77
66871;DHT22;53780;44.998;9.926;2023-08-06T15:45:54;30.12;25.46
66871;DHT22;53780;44.998;9.926;2023-08-06T15:48:58;30.10;23.92
66871;DHT22;53780;44.998;9.926;2023-08-06T15:52:02;30.06;24.65
66871;DHT22;53780;44.998;9.926;2023-08-06T15:55:06;30.06;24.43
66871;DHT22;53780;44.998;9.926;2023-08-06T15:58:10;30.02;24.36
66871;DHT22;53780;44.998;9.926;2023-08-06T16:01:13;29.98;24.53
66871;DHT22;53780;44.998;9.926;2023-08-06T16:04:17;29.96;24.75
66871;DHT22;53780;44.998;9.926;2023-08-06T16:07:22;29.93;25.21
66871;DHT22;53780;44.998;9.926;2023-08-06T16:10:29;29.90;25.95
66871;DHT22;53780;44.998;9.926;2023-08-06T16:13:33;29.86;24.58
66871;DHT22;53780;44.998;9.926;2023-08-06T16:16:37;29.85;25.40
66871;DHT22;53780;44.998;9.926;2023-08-06T16:19:41;29.83;25.65
66871;DHT22;53780;44.998;9.926;2023-08-06T16:22:45;29.76;25.54
66871;DHT22;53780;44.998;9.926;2023-08-06T16:25:49;29.76;26.52
66871;DHT22;53780;44.998;9.926;2023-08-06T16:28:53;29.71;26.34
66871;DHT22;53780;44.998;9.926;2023-08-06T16:31:57;29.68;26.68
66871;DHT22;53780;44.998;9.926;2023-08-06T16:35:02;29.64;27.08
66871;DHT22;53780;44.998;9.926;2023-08-06T16:38:06;29.62;26.96
66871;DHT22;53780;44.998;9.926;2023-08-06T16:41:10;29.58;26.83
66871;DHT22;53780;44.998;9.926;2023-08-06T16:44:14;29.54;26.95
66871;DHT22;53780;44.998;9.926;2023-08-06T16:47:18;29.51;27.57
66871;DHT22;53780;44.998;9.926;2023-08-06T16:50:21;29.48;27.36
66871;DHT22;53780;44.998;9.926;2023-08-06T16:53:25;29.44;27.79
66871;DHT22;53780;44.998;9.926;2023-08-06T16:56:29;29.44;27.74
66871;DHT22;53780;44.998;9.926;2023-08-06T16:59:33;29.34;27.11
66871;DHT22;53780;44.998;9.926;2023-08-06T17:02:38;29.33;27.24
66871;DHT22;53780;44.998;9.926;2023-08-06T17:05:43;29.27;27.76
66871;DHT22;53780;44.998;9.926;2023-08-06T17:08:47;29.26;28.19
66871;DHT22;53780;44.998;9.926;2023-08-06T17:11:51;29.17;28.79
66871;DHT22;53780;44.998;9.926;2023-08-06T17:14:55;29.14;27.87
66871;DHT22;53780;44.998;9.926;2023-08-06T17:18:02;29.07;26.58
66871;DHT22;53780;44.998;9.926;2023-08-06T17:21:05;29.04;25.48
66871;DHT22;53780;44.998;9.926;2023-08-06T17:24:09;28.96;25.75
66871;DHT22;53780;44.998;9.926;2023-08-06T17:27:13;28.93;25.93
66871;DHT22;53780;44.998;9.926;2023-08-06T17:30:16;28.86;26.34
66871;DHT22;53780;44.998;9.926;2023-08-06T17:33:22;28.83;26.38
66871;DHT22;53780;44.998;9.926;2023-08-06T17:36:26;28.73;26.59
66871;DHT22;53780;44.998;9.926;2023-08-06T17:39:30;28.68;26.31
66871;DHT22;53780;44.998;9.926;2023-08-06T17:42:33;28.59;26.62
66871;DHT22;53780;44.998;9.926;2023-08-06T17:45:37;28.52;26.79
66871;DHT22;53780;44.998;9.926;2023-08-06T17:48:41;28.47;26.40
66871;DHT22;53780;44.998;9.926;2023-08-06T17:51:45;28.40;27.07
66871;DHT22;53780;44.998;9.926;2023-08-06T17:54:49;28.32;26.74
66871;DHT22;53780;44.998;9.926;2023-08-06T17:57:53;28.22;26.49
66871;DHT22;53780;44.998;9.926;2023-08-06T18:00:56;28.15;26.83
66871;DHT22;53780;44.998;9.926;2023-08-06T18:04:00;28.07;26.67
66871;DHT22;53780;44.998;9.926;2023-08-06T18:07:04;27.97;27.01
66871;DHT22;53780;44.998;9.926;2023-08-06T18:10:09;27.89;27.25
66871;DHT22;53780;44.998;9.926;2023-08-06T18:13:13;27.80;27.20
66871;DHT22;53780;44.998;9.926;2023-08-06T18:16:17;27.73;27.45
66871;DHT22;53780;44.998;9.926;2023-08-06T18:19:21;27.62;27.80
66871;DHT22;53780;44.998;9.926;2023-08-06T18:22:24;27.58;27.81
66871;DHT22;53780;44.998;9.926;2023-08-06T18:25:28;27.49;28.21
66871;DHT22;53780;44.998;9.926;2023-08-06T18:28:32;27.38;28.86
66871;DHT22;53780;44.998;9.926;2023-08-06T18:31:36;27.28;28.86
66871;DHT22;53780;44.998;9.926;2023-08-06T18:34:40;27.24;29.08
66871;DHT22;53780;44.998;9.926;2023-08-06T18:37:44;27.12;29.22
66871;DHT22;53780;44.998;9.926;2023-08-06T18:40:48;27.01;29.77
66871;DHT22;53780;44.998;9.926;2023-08-06T18:43:51;26.88;30.05
66871;DHT22;53780;44.998;9.926;2023-08-06T18:46:56;26.77;30.23
66871;DHT22;53780;44.998;9.926;2023-08-06T18:49:59;26.61;30.16
66871;DHT22;53780;44.998;9.926;2023-08-06T18:53:03;26.55;30.32
66871;DHT22;53780;44.998;9.926;2023-08-06T18:56:07;26.46;30.34
66871;DHT22;53780;44.998;9.926;2023-08-06T18:59:11;26.32;30.15
66871;DHT22;53780;44.998;9.926;2023-08-06T19:02:17;26.26;30.69
66871;DHT22;53780;44.998;9.926;2023-08-06T19:05:21;26.14;29.69
66871;DHT22;53780;44.998;9.926;2023-08-06T19:08:25;26.04;30.17
66871;DHT22;53780;44.998;9.926;2023-08-06T19:11:29;25.97;30.32
66871;DHT22;53780;44.998;9.926;2023-08-06T19:14:33;25.91;30.40
66871;DHT22;53780;44.998;9.926;2023-08-06T19:17:37;25.80;30.55
66871;DHT22;53780;44.998;9.926;2023-08-06T19:20:44;25.78;30.58
66871;DHT22;53780;44.998;9.926;2023-08-06T19:23:48;25.74;30.83
66871;DHT22;53780;44.998;9.926;2023-08-06T19:26:55;25.64;30.63
66871;DHT22;53780;44.998;9.926;2023-08-06T19:29:59;25.57;30.64
66871;DHT22;53780;44.998;9.926;2023-08-06T19:33:03;25.51;30.79
66871;DHT22;53780;44.998;9.926;2023-08-06T19:36:06;25.40;30.81
66871;DHT22;53780;44.998;9.926;2023-08-06T19:39:10;25.35;31.13
66871;DHT22;53780;44.998;9.926;2023-08-06T19:42:14;25.29;31.26
66871;DHT22;53780;44.998;9.926;2023-08-06T19:45:19;25.22;31.47
66871;DHT22;53780;44.998;9.926;2023-08-06T19:48:23;25.19;31.94
66871;DHT22;53780;44.998;9.926;2023-08-06T19:51:27;25.16;31.83
66871;DHT22;53780;44.998;9.926;2023-08-06T19:54:32;25.16;31.65
66871;DHT22;53780;44.998;9.926;2023-08-06T19:57:36;25.08;31.61
66871;DHT22;53780;44.998;9.926;2023-08-06T20:00:40;25.04;31.65
66871;DHT22;53780;44.998;9.926;2023-08-06T20:03:45;25.01;31.66
66871;DHT22;53780;44.998;9.926;2023-08-06T20:06:49;24.92;31.78
66871;DHT22;53780;44.998;9.926;2023-08-06T20:09:53;24.82;32.09
66871;DHT22;53780;44.998;9.926;2023-08-06T20:12:57;24.72;32.19
66871;DHT22;53780;44.998;9.926;2023-08-06T20:16:01;24.67;32.91
66871;DHT22;53780;44.998;9.926;2023-08-06T20:19:05;24.60;32.80
66871;DHT22;53780;44.998;9.926;2023-08-06T20:22:12;24.56;33.22
66871;DHT22;53780;44.998;9.926;2023-08-06T20:25:16;24.52;33.55
66871;DHT22;53780;44.998;9.926;2023-08-06T20:28:20;24.49;33.65
66871;DHT22;53780;44.998;9.926;2023-08-06T20:31:23;24.44;33.46
66871;DHT22;53780;44.998;9.926;2023-08-06T20:34:27;24.37;33.71
66871;DHT22;53780;44.998;9.926;2023-08-06T20:37:31;24.33;34.15
66871;DHT22;53780;44.998;9.926;2023-08-06T20:40:39;24.29;33.76
66871;DHT22;53780;44.998;9.926;2023-08-06T20:43:45;24.22;33.40
66871;DHT22;53780;44.998;9.926;2023-08-06T20:46:48;24.13;33.49
66871;DHT22;53780;44.998;9.926;2023-08-06T20:49:54;24.05;34.12
66871;DHT22;53780;44.998;9.926;2023-08-06T20:52:58;24.02;34.47
66871;DHT22;53780;44.998;9.926;2023-08-06T20:56:03;23.95;35.21
66871;DHT22;53780;44.998;9.926;2023-08-06T20:59:08;23.84;35.50
66871;DHT22;53780;44.998;9.926;2023-08-06T21:02:12;23.77;35.44
66871;DHT22;53780;44.998;9.926;2023-08-06T21:05:16;23.65;36.15
66871;DHT22;53780;44.998;9.926;2023-08-06T21:08:19;23.61;36.25
66871;DHT22;53780;44.998;9.926;2023-08-06T21:11:23;23.51;36.69
66871;DHT22;53780;44.998;9.926;2023-08-06T21:14:27;23.44;36.66
66871;DHT22;53780;44.998;9.926;2023-08-06T21:17:31;23.36;36.87
66871;DHT22;53780;44.998;9.926;2023-08-06T21:20:35;23.28;37.42
66871;DHT22;53780;44.998;9.926;2023-08-06T21:23:38;23.24;37.09
66871;DHT22;53780;44.998;9.926;2023-08-06T21:26:44;23.14;36.80
66871;DHT22;53780;44.998;9.926;2023-08-06T21:29:48;23.09;36.85
66871;DHT22;53780;44.998;9.926;2023-08-06T21:32:52;22.96;37.34
66871;DHT22;53780;44.998;9.926;2023-08-06T21:35:57;22.98;36.91
66871;DHT22;53780;44.998;9.926;2023-08-06T21:39:04;22.93;36.75
66871;DHT22;53780;44.998;9.926;2023-08-06T21:42:08;22.88;36.66
66871;DHT22;53780;44.998;9.926;2023-08-06T21:45:12;22.78;36.81
66871;DHT22;53780;44.998;9.926;2023-08-06T21:48:16;22.73;37.06
66871;DHT22;53780;44.998;9.926;2023-08-06T21:51:20;22.72;37.36
66871;DHT22;53780;44.998;9.926;2023-08-06T21:54:24;22.58;40.33
66871;DHT22;53780;44.998;9.926;2023-08-06T21:57:28;22.38;39.46
66871;DHT22;53780;44.998;9.926;2023-08-06T22:00:32;22.27;39.94
66871;DHT22;53780;44.998;9.926;2023-08-06T22:03:37;22.24;38.18
66871;DHT22;53780;44.998;9.926;2023-08-06T22:06:41;22.21;38.32
66871;DHT22;53780;44.998;9.926;2023-08-06T22:09:45;22.24;38.18
66871;DHT22;53780;44.998;9.926;2023-08-06T22:12:48;22.25;37.70
66871;DHT22;53780;44.998;9.926;2023-08-06T22:15:52;22.22;37.40
66871;DHT22;53780;44.998;9.926;2023-08-06T22:18:57;22.14;38.86
66871;DHT22;53780;44.998;9.926;2023-08-06T22:22:00;22.00;38.77
66871;DHT22;53780;44.998;9.926;2023-08-06T22:25:06;21.97;38.70
66871;DHT22;53780;44.998;9.926;2023-08-06T22:28:10;21.99;39.24
66871;DHT22;53780;44.998;9.926;2023-08-06T22:31:13;21.85;41.20
66871;DHT22;53780;44.998;9.926;2023-08-06T22:34:19;21.78;42.16
66871;DHT22;53780;44.998;9.926;2023-08-06T22:37:24;21.76;40.87
66871;DHT22;53780;44.998;9.926;2023-08-06T22:40:28;21.75;40.38
66871;DHT22;53780;44.998;9.926;2023-08-06T22:43:32;21.73;40.28
66871;DHT22;53780;44.998;9.926;2023-08-06T22:46:35;21.58;41.36
66871;DHT22;53780;44.998;9.926;2023-08-06T22:49:39;21.49;41.53
66871;DHT22;53780;44.998;9.926;2023-08-06T22:52:43;21.42;48.65
66871;DHT22;53780;44.998;9.926;2023-08-06T22:55:46;21.32;50.58
66871;DHT22;53780;44.998;9.926;2023-08-06T22:58:50;21.28;48.01
66871;DHT22;53780;44.998;9.926;2023-08-06T23:01:54;21.24;44.50
66871;DHT22;53780;44.998;9.926;2023-08-06T23:04:58;21.01;47.40
66871;DHT22;53780;44.998;9.926;2023-08-06T23:08:01;20.84;49.67
66871;DHT22;53780;44.998;9.926;2023-08-06T23:11:05;20.83;48.22
66871;DHT22;53780;44.998;9.926;2023-08-06T23:14:11;20.75;44.34
66871;DHT22;53780;44.998;9.926;2023-08-06T23:17:15;20.72;45.98
66871;DHT22;53780;44.998;9.926;2023-08-06T23:20:19;20.69;44.68
66871;DHT22;53780;44.998;9.926;2023-08-06T23:23:23;20.65;45.13
66871;DHT22;53780;44.998;9.926;2023-08-06T23:26:27;20.61;45.28
66871;DHT22;53780;44.998;9.926;2023-08-06T23:29:30;20.56;45.37
66871;DHT22;53780;44.998;9.926;2023-08-06T23:32:34;20.42;46.37
66871;DHT22;53780;44.998;9.926;2023-08-06T23:35:38;20.29;47.18
66871;DHT22;53780;44.998;9.926;2023-08-06T23:38:42;20.25;48.09
66871;DHT22;53780;44.998;9.926;2023-08-06T23:41:46;20.21;48.11
66871;DHT22;53780;44.998;9.926;2023-08-06T23:44:50;20.20;47.91
66871;DHT22;53780;44.998;9.926;2023-08-06T23:47:53;20.11;50.10
66871;DHT22;53780;44.998;9.926;2023-08-06T23:50:57;20.00;49.98
66871;DHT22;53780;44.998;9.926;2023-08-06T23:54:01;19.83;52.53
66871;DHT22;53780;44.998;9.926;2023-08-06T23:57:05;19.69;53.82
